createdAt,value
2018-07-30T00:00:14.950Z,85.78
2018-07-30T00:02:45.214Z,85.89
2018-07-30T00:05:13.954Z,86.97
2018-07-30T00:07:42.942Z,87.43
2018-07-30T00:10:11.673Z,87.53
2018-07-30T00:12:40.910Z,87.12
2018-07-30T00:15:10.430Z,87.54
2018-07-30T00:17:39.084Z,87.78
2018-07-30T00:20:07.908Z,87.63
2018-07-30T00:22:37.223Z,87.66
2018-07-30T00:25:05.999Z,87.96
2018-07-30T00:27:34.682Z,87.98
2018-07-30T00:30:03.453Z,88.10
2018-07-30T00:32:32.125Z,88.03
2018-07-30T00:35:00.703Z,88.33
2018-07-30T00:37:29.523Z,88.19
2018-07-30T00:39:58.213Z,88.43
2018-07-30T00:42:27.120Z,88.65
2018-07-30T00:44:56.611Z,88.48
2018-07-30T00:47:25.409Z,88.61
2018-07-30T00:49:54.122Z,88.29
2018-07-30T00:52:22.745Z,88.52
2018-07-30T00:54:51.446Z,88.50
2018-07-30T00:57:20.088Z,88.49
2018-07-30T01:02:29.265Z,89.65
2018-07-30T01:04:57.912Z,89.33
2018-07-30T01:07:26.750Z,89.93
2018-07-30T01:09:56.329Z,90.31
2018-07-30T01:12:25.013Z,90.69
2018-07-30T01:14:53.804Z,90.56
2018-07-30T01:17:22.537Z,90.42
2018-07-30T01:19:51.314Z,90.71
2018-07-30T01:22:19.994Z,91.18
2018-07-30T01:24:48.644Z,91.30
2018-07-30T01:27:17.339Z,91.07
2018-07-30T01:29:46.181Z,90.78
2018-07-30T01:32:14.952Z,90.83
2018-07-30T01:34:43.604Z,91.02
2018-07-30T01:37:12.963Z,91.47
2018-07-30T01:39:41.724Z,91.37
2018-07-30T01:42:11.230Z,91.44
2018-07-30T01:44:40.524Z,91.69
2018-07-30T01:47:09.163Z,92.56
2018-07-30T01:49:37.834Z,92.62
2018-07-30T01:52:07.060Z,92.42
2018-07-30T01:54:36.417Z,92.72
2018-07-30T01:57:05.035Z,93.07
2018-07-30T01:59:33.843Z,93.40
2018-07-30T02:02:02.578Z,93.34
2018-07-30T02:04:31.273Z,93.27
2018-07-30T02:06:59.943Z,93.28
2018-07-30T02:09:28.774Z,93.12
2018-07-30T02:11:59.106Z,93.29
2018-07-30T02:14:28.520Z,93.81
2018-07-30T02:16:57.114Z,93.92
2018-07-30T02:19:25.729Z,93.52
2018-07-30T02:21:54.978Z,94.01
2018-07-30T02:24:24.190Z,93.69
2018-07-30T02:26:52.875Z,93.76
2018-07-30T02:29:21.514Z,93.76
2018-07-30T02:31:50.255Z,93.48
2018-07-30T02:34:19.065Z,93.55
2018-07-30T02:36:48.269Z,93.44
2018-07-30T02:39:17.770Z,93.41
2018-07-30T02:41:46.446Z,93.68
2018-07-30T02:44:16.144Z,93.42
2018-07-30T02:46:45.416Z,93.80
2018-07-30T02:49:14.144Z,93.83
2018-07-30T02:51:42.782Z,93.87
2018-07-30T02:54:11.420Z,94.06
2018-07-30T02:56:40.123Z,94.24
2018-07-30T02:59:09.574Z,93.95
2018-07-30T03:01:38.329Z,93.59
2018-07-30T03:04:06.965Z,94.32
2018-07-30T03:06:35.639Z,94.16
2018-07-30T03:09:07.189Z,94.10
2018-07-30T03:11:35.784Z,94.33
2018-07-30T03:14:04.629Z,94.22
2018-07-30T03:16:33.378Z,94.49
2018-07-30T03:19:02.089Z,94.58
2018-07-30T03:21:30.736Z,94.25
2018-07-30T03:23:59.310Z,94.83
2018-07-30T03:26:28.756Z,94.91
2018-07-30T03:28:57.378Z,94.84
2018-07-30T03:31:26.320Z,94.44
2018-07-30T03:33:55.225Z,94.72
2018-07-30T03:36:23.876Z,94.63
2018-07-30T03:38:52.596Z,94.81
2018-07-30T03:41:21.312Z,94.43
2018-07-30T03:43:50.162Z,94.36
2018-07-30T03:46:18.850Z,94.51
2018-07-30T03:48:47.541Z,95.12
2018-07-30T03:51:16.229Z,94.90
2018-07-30T03:53:45.585Z,94.65
2018-07-30T03:56:14.290Z,94.91
2018-07-30T03:58:43.807Z,95.86
2018-07-30T04:01:13.149Z,95.24
2018-07-30T04:03:42.449Z,95.37
2018-07-30T04:06:11.182Z,95.65
2018-07-30T04:08:39.761Z,95.98
2018-07-30T04:11:08.581Z,95.42
2018-07-30T04:13:37.275Z,95.88
2018-07-30T04:16:06.180Z,96.04
2018-07-30T04:18:34.800Z,96.00
2018-07-30T04:21:03.531Z,95.94
2018-07-30T04:23:32.150Z,95.94
2018-07-30T04:26:01.491Z,95.08
2018-07-30T04:28:30.791Z,95.38
2018-07-30T04:30:59.480Z,94.06
2018-07-30T04:33:28.948Z,94.08
2018-07-30T04:35:57.714Z,93.81
2018-07-30T04:38:26.514Z,93.02
2018-07-30T04:40:55.798Z,92.56
2018-07-30T04:43:24.376Z,91.92
2018-07-30T04:45:53.252Z,92.13
2018-07-30T04:48:22.600Z,91.43
2018-07-30T04:50:51.235Z,91.46
2018-07-30T04:53:22.181Z,90.67
2018-07-30T04:55:51.004Z,90.42
2018-07-30T04:58:20.418Z,90.02
2018-07-30T05:00:49.162Z,88.92
2018-07-30T05:03:17.750Z,88.66
2018-07-30T05:05:47.237Z,88.07
2018-07-30T05:08:17.648Z,87.78
2018-07-30T05:10:46.291Z,86.55
2018-07-30T05:13:14.908Z,85.48
2018-07-30T05:15:43.598Z,82.99
2018-07-30T05:18:12.342Z,81.04
2018-07-30T05:20:41.036Z,78.45
2018-07-30T05:23:09.767Z,75.20
2018-07-30T05:25:38.527Z,72.60
2018-07-30T05:28:07.150Z,70.38
2018-07-30T05:30:36.000Z,68.30
2018-07-30T05:33:04.736Z,66.37
2018-07-30T05:35:33.353Z,65.40
2018-07-30T05:38:02.026Z,63.57
2018-07-30T05:40:31.052Z,61.95
2018-07-30T05:42:59.677Z,61.13
2018-07-30T05:45:28.366Z,59.30
2018-07-30T05:47:56.928Z,59.18
2018-07-30T05:50:25.595Z,57.66
2018-07-30T05:52:54.586Z,55.98
2018-07-30T05:55:23.172Z,54.86
2018-07-30T05:57:51.807Z,55.08
2018-07-30T06:00:20.491Z,53.47
2018-07-30T06:02:49.771Z,52.52
2018-07-30T06:05:18.453Z,50.47
2018-07-30T06:07:47.173Z,48.19
2018-07-30T06:10:15.892Z,47.03
2018-07-30T06:12:44.535Z,46.37
2018-07-30T06:15:13.416Z,45.14
2018-07-30T06:17:42.741Z,44.16
2018-07-30T06:20:11.996Z,42.93
2018-07-30T06:22:41.138Z,42.92
2018-07-30T06:25:09.793Z,44.68
2018-07-30T06:27:38.566Z,42.77
2018-07-30T06:30:08.197Z,41.24
2018-07-30T06:32:37.062Z,40.93
2018-07-30T06:35:06.311Z,40.96
2018-07-30T06:37:35.082Z,40.85
2018-07-30T06:40:03.857Z,39.43
2018-07-30T06:42:33.417Z,39.64
2018-07-30T06:45:02.221Z,38.65
2018-07-30T06:47:30.795Z,38.99
2018-07-30T06:49:59.494Z,38.84
2018-07-30T06:52:28.098Z,37.78
2018-07-30T06:54:56.697Z,36.89
2018-07-30T06:57:25.422Z,36.02
2018-07-30T06:59:54.227Z,35.32
2018-07-30T07:02:24.202Z,36.05
2018-07-30T07:04:52.972Z,36.52
2018-07-30T07:07:21.714Z,35.94
2018-07-30T07:09:50.489Z,35.66
2018-07-30T07:12:19.171Z,35.22
2018-07-30T07:14:47.964Z,36.69
2018-07-30T07:17:16.650Z,36.71
2018-07-30T07:19:45.468Z,36.68
2018-07-30T07:22:14.448Z,35.71
2018-07-30T07:24:43.092Z,34.23
2018-07-30T07:27:11.795Z,33.79
2018-07-30T07:29:40.442Z,32.98
2018-07-30T07:32:09.104Z,32.68
2018-07-30T07:34:37.908Z,30.14
2018-07-30T07:37:07.453Z,30.19
2018-07-30T07:39:36.218Z,29.67
2018-07-30T07:42:05.689Z,28.40
2018-07-30T07:44:34.405Z,28.31
2018-07-30T07:47:03.048Z,27.70
2018-07-30T07:49:32.528Z,26.96
2018-07-30T07:52:01.187Z,26.76
2018-07-30T07:54:29.894Z,25.79
2018-07-30T07:56:58.591Z,26.08
2018-07-30T07:59:27.422Z,25.43
2018-07-30T08:01:56.549Z,25.04
2018-07-30T08:04:25.253Z,26.06
2018-07-30T08:06:53.863Z,24.99
2018-07-30T08:09:23.038Z,25.24
2018-07-30T08:11:51.723Z,24.10
2018-07-30T08:14:20.843Z,23.62
2018-07-30T08:16:49.633Z,22.87
2018-07-30T08:19:18.381Z,23.03
2018-07-30T08:21:47.191Z,22.79
2018-07-30T08:24:16.678Z,22.71
2018-07-30T08:26:45.283Z,22.19
2018-07-30T08:29:14.610Z,22.33
2018-07-30T08:31:43.293Z,21.71
2018-07-30T08:34:12.548Z,21.16
2018-07-30T08:36:41.253Z,21.56
2018-07-30T08:39:11.493Z,21.42
2018-07-30T08:41:40.176Z,21.09
2018-07-30T08:44:09.437Z,20.15
2018-07-30T08:46:38.228Z,19.59
2018-07-30T08:49:06.938Z,18.88
2018-07-30T08:51:35.599Z,19.91
2018-07-30T08:54:04.341Z,18.97
2018-07-30T08:56:33.045Z,17.55
2018-07-30T08:59:01.652Z,17.22
2018-07-30T09:01:30.276Z,17.14
2018-07-30T09:03:59.043Z,16.88
2018-07-30T09:06:28.538Z,16.48
2018-07-30T09:08:57.172Z,16.75
2018-07-30T09:11:25.788Z,16.76
2018-07-30T09:13:55.067Z,16.18
2018-07-30T09:16:24.321Z,15.64
2018-07-30T09:18:53.026Z,15.84
2018-07-30T09:21:21.693Z,16.24
2018-07-30T09:23:50.391Z,15.36
2018-07-30T09:26:19.151Z,15.35
2018-07-30T09:28:47.792Z,14.96
2018-07-30T09:31:16.605Z,14.75
2018-07-30T09:33:45.436Z,14.98
2018-07-30T09:36:15.981Z,14.11
2018-07-30T09:38:44.699Z,13.83
2018-07-30T09:41:13.532Z,13.27
2018-07-30T09:43:42.245Z,13.37
2018-07-30T09:46:10.986Z,14.01
2018-07-30T09:48:39.810Z,12.67
2018-07-30T09:51:08.942Z,12.67
2018-07-30T09:53:37.951Z,12.61
2018-07-30T09:56:07.199Z,12.97
2018-07-30T09:58:36.198Z,12.69
2018-07-30T10:01:06.548Z,11.58
2018-07-30T10:03:35.537Z,10.91
2018-07-30T10:06:04.397Z,11.37
2018-07-30T10:08:33.619Z,11.66
2018-07-30T10:11:02.299Z,11.81
2018-07-30T10:13:31.097Z,11.26
2018-07-30T10:16:00.454Z,10.90
2018-07-30T10:18:29.059Z,10.51
2018-07-30T10:20:57.754Z,10.54
2018-07-30T10:23:26.379Z,10.38
2018-07-30T10:25:55.069Z,10.40
2018-07-30T10:28:23.919Z,10.20
2018-07-30T10:30:52.602Z,10.28
2018-07-30T10:33:21.166Z,10.33
2018-07-30T10:35:49.857Z,11.32
2018-07-30T10:38:18.982Z,11.04
2018-07-30T10:40:47.607Z,10.18
2018-07-30T10:43:16.479Z,9.79
2018-07-30T10:45:45.194Z,9.65
2018-07-30T10:48:15.369Z,10.00
2018-07-30T10:50:44.262Z,10.32
2018-07-30T10:53:13.010Z,9.77
2018-07-30T10:55:41.792Z,9.77
2018-07-30T10:58:11.323Z,9.41
2018-07-30T11:00:39.988Z,8.41
2018-07-30T11:03:08.692Z,8.29
2018-07-30T11:05:37.382Z,9.14
2018-07-30T11:08:06.817Z,8.39
2018-07-30T11:10:35.749Z,8.49
2018-07-30T11:13:04.349Z,8.23
2018-07-30T11:15:33.151Z,8.18
2018-07-30T11:18:01.899Z,8.02
2018-07-30T11:20:30.693Z,8.28
2018-07-30T11:23:00.977Z,8.93
2018-07-30T11:25:29.645Z,9.62
2018-07-30T11:27:58.337Z,9.42
2018-07-30T11:30:27.012Z,8.48
2018-07-30T11:32:55.728Z,8.45
2018-07-30T11:35:25.032Z,9.28
2018-07-30T11:37:53.735Z,8.81
2018-07-30T11:40:22.452Z,8.84
2018-07-30T11:42:51.381Z,9.30
2018-07-30T11:45:20.094Z,8.42
2018-07-30T11:47:48.852Z,8.31
2018-07-30T11:50:18.350Z,8.36
2018-07-30T11:52:47.089Z,8.22
2018-07-30T11:55:15.915Z,8.40
2018-07-30T11:57:44.682Z,8.62
2018-07-30T12:00:13.419Z,9.08
2018-07-30T12:02:42.761Z,9.22
2018-07-30T12:05:11.446Z,10.23
2018-07-30T12:07:40.903Z,11.59
2018-07-30T12:10:09.630Z,11.83
2018-07-30T12:12:38.351Z,11.49
2018-07-30T12:15:06.969Z,9.99
2018-07-30T12:17:35.548Z,8.41
2018-07-30T12:20:04.252Z,8.48
2018-07-30T12:22:33.679Z,8.92
2018-07-30T12:25:02.386Z,8.63
2018-07-30T12:27:31.015Z,8.88
2018-07-30T12:29:59.867Z,10.61
2018-07-30T12:32:28.493Z,10.83
2018-07-30T12:34:57.744Z,12.30
2018-07-30T12:37:27.101Z,11.00
2018-07-30T12:39:55.793Z,11.08
2018-07-30T12:42:24.438Z,10.94
2018-07-30T12:44:53.153Z,11.16
2018-07-30T12:47:21.779Z,11.06
2018-07-30T12:49:50.628Z,11.31
2018-07-30T12:52:19.249Z,11.01
2018-07-30T12:54:47.975Z,10.58
2018-07-30T12:57:16.633Z,10.53
2018-07-30T12:59:45.294Z,10.07
2018-07-30T13:02:14.084Z,10.14
2018-07-30T13:04:42.854Z,12.27
2018-07-30T13:07:11.645Z,12.58
2018-07-30T13:09:41.075Z,12.28
2018-07-30T13:12:09.797Z,12.50
2018-07-30T13:14:38.442Z,12.21
2018-07-30T13:17:07.778Z,12.72
2018-07-30T13:19:36.459Z,13.00
2018-07-30T13:22:05.093Z,13.48
2018-07-30T13:24:33.839Z,13.46
2018-07-30T13:27:02.513Z,14.34
2018-07-30T13:29:31.980Z,14.62
2018-07-30T13:32:00.658Z,14.67
2018-07-30T13:34:29.350Z,15.27
2018-07-30T13:36:58.065Z,16.09
2018-07-30T13:39:26.864Z,16.45
2018-07-30T13:41:55.824Z,16.71
2018-07-30T13:44:24.409Z,17.03
2018-07-30T13:46:53.150Z,17.60
2018-07-30T13:49:22.838Z,18.51
2018-07-30T13:51:51.688Z,18.32
2018-07-30T13:54:20.528Z,18.39
2018-07-30T13:56:49.225Z,17.85
2018-07-30T13:59:18.742Z,18.93
2018-07-30T14:01:47.890Z,18.84
2018-07-30T14:04:16.515Z,19.44
2018-07-30T14:06:45.207Z,19.54
2018-07-30T14:09:14.553Z,19.89
2018-07-30T14:11:43.259Z,19.60
2018-07-30T14:14:11.949Z,19.33
2018-07-30T14:16:41.338Z,19.85
2018-07-30T14:19:10.302Z,19.60
2018-07-30T14:21:39.814Z,20.31
2018-07-30T14:24:09.298Z,20.02
2018-07-30T14:26:38.079Z,19.35
2018-07-30T14:29:06.923Z,19.76
2018-07-30T14:31:35.600Z,20.80
2018-07-30T14:34:04.263Z,21.37
2018-07-30T14:36:32.890Z,21.78
2018-07-30T14:39:01.737Z,21.93
2018-07-30T14:41:30.373Z,22.33
2018-07-30T14:43:58.956Z,22.08
2018-07-30T14:46:27.739Z,21.99
2018-07-30T14:48:56.786Z,22.72
2018-07-30T14:51:25.509Z,23.64
2018-07-30T14:53:54.251Z,23.76
2018-07-30T14:56:23.279Z,24.50
2018-07-30T14:58:52.079Z,23.62
2018-07-30T15:01:21.155Z,24.68
2018-07-30T15:03:49.851Z,24.46
2018-07-30T15:06:19.261Z,24.59
2018-07-30T15:08:47.915Z,24.59
2018-07-30T15:11:17.365Z,25.03
2018-07-30T15:13:46.489Z,25.17
2018-07-30T15:16:15.268Z,24.41
2018-07-30T15:18:43.944Z,23.76
2018-07-30T15:21:12.564Z,24.10
2018-07-30T15:23:41.294Z,24.78
2018-07-30T15:26:10.848Z,25.09
2018-07-30T15:28:39.709Z,25.57
2018-07-30T15:31:08.634Z,24.24
2018-07-30T15:33:37.880Z,25.14
2018-07-30T15:36:07.319Z,26.09
2018-07-30T15:38:35.930Z,25.55
2018-07-30T15:41:04.723Z,24.72
2018-07-30T15:43:33.523Z,26.20
2018-07-30T15:46:02.366Z,25.55
2018-07-30T15:48:31.835Z,25.94
2018-07-30T15:51:00.749Z,26.13
2018-07-30T15:53:29.382Z,25.81
2018-07-30T15:55:58.232Z,24.77
2018-07-30T15:58:27.013Z,24.83
2018-07-30T16:00:55.725Z,26.43
2018-07-30T16:03:25.214Z,27.08
2018-07-30T16:05:54.190Z,26.68
2018-07-30T16:10:57.124Z,25.36
2018-07-30T16:13:25.846Z,25.68
2018-07-30T16:15:55.289Z,26.96
2018-07-30T16:18:24.140Z,26.84
2018-07-30T16:23:27.488Z,26.57
2018-07-30T16:28:30.811Z,26.91
2018-07-30T16:33:33.484Z,28.41
2018-07-30T16:43:44.599Z,28.55
2018-07-30T16:46:13.333Z,27.69
2018-07-30T16:48:42.123Z,28.14
2018-07-30T16:51:11.004Z,28.72
2018-07-30T16:53:39.710Z,27.90
2018-07-30T16:56:08.541Z,27.73
2018-07-30T16:58:37.202Z,27.27
2018-07-30T17:01:06.084Z,27.57
2018-07-30T17:03:34.810Z,28.02
2018-07-30T17:06:03.529Z,28.21
2018-07-30T17:08:32.258Z,27.93
2018-07-30T17:11:02.113Z,28.21
2018-07-30T17:13:31.561Z,29.00
2018-07-30T17:16:00.319Z,28.31
2018-07-30T17:18:28.995Z,28.86
2018-07-30T17:20:58.081Z,30.81
2018-07-30T17:23:26.685Z,35.18
2018-07-30T17:25:55.628Z,34.51
2018-07-30T17:28:24.300Z,35.03
2018-07-30T17:30:53.029Z,34.30
2018-07-30T17:33:21.934Z,36.76
2018-07-30T17:35:50.909Z,36.96
2018-07-30T17:38:20.037Z,37.22
2018-07-30T17:40:49.130Z,37.70
2018-07-30T17:43:17.971Z,38.52
2018-07-30T17:45:46.891Z,39.77
2018-07-30T17:48:15.872Z,39.67
2018-07-30T17:50:44.809Z,40.32
2018-07-30T17:53:13.559Z,41.61
2018-07-30T17:55:42.540Z,42.14
2018-07-30T17:58:11.683Z,42.63
2018-07-30T18:00:40.554Z,43.97
2018-07-30T18:03:09.369Z,44.32
2018-07-30T18:05:38.312Z,44.39
2018-07-30T18:08:07.454Z,44.89
2018-07-30T18:10:36.916Z,44.88
2018-07-30T18:13:05.622Z,45.36
2018-07-30T18:15:34.247Z,46.42
2018-07-30T18:18:03.196Z,46.65
2018-07-30T18:20:31.846Z,47.46
2018-07-30T18:23:00.825Z,46.82
2018-07-30T18:25:29.920Z,47.24
2018-07-30T18:27:58.581Z,47.70
2018-07-30T18:30:27.441Z,47.47
2018-07-30T18:32:56.715Z,48.42
2018-07-30T18:35:25.594Z,49.69
2018-07-30T18:37:54.297Z,50.65
2018-07-30T18:40:23.070Z,50.78
2018-07-30T18:42:51.769Z,51.01
2018-07-30T18:45:20.630Z,51.42
2018-07-30T18:47:49.429Z,53.05
2018-07-30T18:50:18.372Z,53.28
2018-07-30T18:52:47.156Z,54.50
2018-07-30T18:55:15.912Z,53.32
2018-07-30T18:57:44.680Z,53.10
2018-07-30T19:00:14.306Z,55.63
2018-07-30T19:02:43.116Z,56.11
2018-07-30T19:05:11.820Z,54.78
2018-07-30T19:07:40.677Z,55.21
2018-07-30T19:10:09.360Z,58.03
2018-07-30T19:12:37.507Z,58.13
2018-07-30T19:15:06.937Z,57.48
2018-07-30T19:17:35.832Z,56.97
2018-07-30T19:20:05.349Z,57.53
2018-07-30T19:22:34.057Z,59.95
2018-07-30T19:25:02.666Z,59.28
2018-07-30T19:27:31.960Z,59.32
2018-07-30T19:30:00.771Z,58.59
2018-07-30T19:32:29.424Z,59.62
2018-07-30T19:34:58.143Z,59.89
2018-07-30T19:37:26.840Z,60.24
2018-07-30T19:39:57.071Z,59.89
2018-07-30T19:42:26.324Z,60.16
2018-07-30T19:44:55.098Z,59.88
2018-07-30T19:47:24.061Z,60.95
2018-07-30T19:49:52.860Z,62.28
2018-07-30T19:52:21.851Z,62.40
2018-07-30T19:54:50.636Z,62.91
2018-07-30T19:57:20.353Z,63.27
2018-07-30T19:59:49.961Z,62.69
2018-07-30T20:02:18.817Z,62.63
2018-07-30T20:04:47.475Z,62.08
2018-07-30T20:07:17.762Z,63.64
2018-07-30T20:09:46.691Z,63.92
2018-07-30T20:12:15.563Z,63.96
2018-07-30T20:14:44.527Z,64.06
2018-07-30T20:17:13.532Z,64.64
2018-07-30T20:19:42.429Z,64.38
2018-07-30T20:22:12.355Z,64.54
2018-07-30T20:24:41.084Z,64.85
2018-07-30T20:27:09.844Z,65.36
2018-07-30T20:29:38.771Z,65.66
2018-07-30T20:32:07.945Z,65.58
2018-07-30T20:34:36.965Z,65.55
2018-07-30T20:37:06.334Z,65.51
2018-07-30T20:39:35.043Z,66.30
2018-07-30T20:42:03.708Z,66.21
2018-07-30T20:44:33.107Z,66.89
2018-07-30T20:47:02.412Z,66.39
2018-07-30T20:49:31.232Z,66.97
2018-07-30T20:52:00.522Z,68.15
2018-07-30T20:54:29.286Z,68.69
2018-07-30T20:56:58.007Z,69.04
2018-07-30T20:59:27.611Z,69.95
2018-07-30T21:01:56.396Z,70.19
2018-07-30T21:04:25.732Z,69.13
2018-07-30T21:06:55.115Z,69.10
2018-07-30T21:09:24.353Z,69.27
2018-07-30T21:11:53.422Z,69.53
2018-07-30T21:14:22.167Z,69.36
2018-07-30T21:16:50.862Z,69.83
2018-07-30T21:19:19.675Z,69.47
2018-07-30T21:21:48.387Z,69.38
2018-07-30T21:24:17.197Z,70.30
2018-07-30T21:26:46.017Z,70.53
2018-07-30T21:29:14.868Z,69.93
2018-07-30T21:31:43.708Z,70.69
2018-07-30T21:34:12.747Z,71.12
2018-07-30T21:36:41.702Z,71.04
2018-07-30T21:39:13.215Z,71.35
2018-07-30T21:41:42.307Z,71.78
2018-07-30T21:44:12.121Z,72.29
2018-07-30T21:46:42.757Z,73.14
2018-07-30T21:49:11.659Z,72.48
2018-07-30T21:51:40.935Z,72.26
2018-07-30T21:54:09.740Z,72.02
2018-07-30T21:56:38.400Z,71.99
2018-07-30T21:59:07.826Z,72.56
2018-07-30T22:01:36.455Z,73.08
2018-07-30T22:04:05.092Z,72.69
2018-07-30T22:06:34.362Z,73.43
2018-07-30T22:09:03.306Z,73.59
2018-07-30T22:11:32.096Z,73.75
2018-07-30T22:14:00.816Z,74.21
2018-07-30T22:16:30.307Z,74.35
2018-07-30T22:18:59.044Z,73.84
2018-07-30T22:21:27.662Z,74.75
2018-07-30T22:23:56.292Z,74.62
2018-07-30T22:26:25.038Z,74.77
2018-07-30T22:28:54.427Z,74.87
2018-07-30T22:31:23.186Z,74.82
2018-07-30T22:33:51.811Z,75.33
2018-07-30T22:36:20.411Z,74.96
2018-07-30T22:38:49.261Z,74.99
2018-07-30T22:41:18.642Z,76.05
2018-07-30T22:43:47.360Z,75.72
2018-07-30T22:46:15.950Z,75.26
2018-07-30T22:48:44.626Z,75.85
2018-07-30T22:51:13.336Z,75.84
2018-07-30T22:53:42.084Z,76.24
2018-07-30T22:56:10.766Z,76.36
2018-07-30T22:58:40.075Z,76.59
2018-07-30T23:01:09.410Z,76.67
2018-07-30T23:03:38.630Z,77.23
2018-07-30T23:06:07.972Z,77.67
2018-07-30T23:08:36.662Z,77.63
2018-07-30T23:11:05.887Z,77.21
2018-07-30T23:13:35.506Z,77.25
2018-07-30T23:16:04.234Z,77.03
2018-07-30T23:18:32.901Z,77.78
2018-07-30T23:21:01.561Z,77.14
2018-07-30T23:23:30.207Z,77.79
2018-07-30T23:25:58.937Z,77.93
2018-07-30T23:28:27.613Z,78.33
2018-07-30T23:30:56.291Z,77.54
2018-07-30T23:33:25.351Z,77.82
2018-07-30T23:35:54.090Z,78.65
2018-07-30T23:38:22.788Z,78.36
2018-07-30T23:40:51.436Z,78.08
2018-07-30T23:43:20.103Z,77.92
2018-07-30T23:45:49.458Z,78.00
2018-07-30T23:48:18.085Z,78.34
2018-07-30T23:50:46.838Z,78.04
2018-07-30T23:53:15.592Z,78.23
2018-07-30T23:55:44.303Z,79.23
2018-07-30T23:58:12.902Z,79.22
